createdAt,value
2022-08-09T00:01:55.654Z,16.10
2022-08-09T00:04:34.580Z,16.10
2022-08-09T00:07:10.363Z,16.10
2022-08-09T00:09:40.409Z,16.10
2022-08-09T00:12:22.589Z,16.10
2022-08-09T00:14:56.854Z,16.10
2022-08-09T00:18:05.297Z,16.10
2022-08-09T00:20:15.628Z,16.00
2022-08-09T00:22:47.163Z,16.00
2022-08-09T00:25:23.531Z,16.10
2022-08-09T00:28:04.103Z,16.00
2022-08-09T00:30:35.447Z,16.10
2022-08-09T00:33:04.439Z,16.10
2022-08-09T00:35:43.250Z,16.10
2022-08-09T00:38:13.027Z,16.10
2022-08-09T00:40:52.980Z,16.10
2022-08-09T00:44:10.075Z,16.10
2022-08-09T00:46:28.470Z,16.10
2022-08-09T00:49:04.015Z,16.10
2022-08-09T00:51:33.791Z,16.10
2022-08-09T00:54:12.203Z,16.10
2022-08-09T00:56:44.702Z,16.00
2022-08-09T00:59:14.547Z,16.00
2022-08-09T01:02:05.251Z,15.90
2022-08-09T01:04:44.135Z,15.80
2022-08-09T01:07:37.974Z,15.70
2022-08-09T01:10:17.673Z,15.70
2022-08-09T01:12:57.114Z,15.60
2022-08-09T01:15:30.770Z,15.60
2022-08-09T01:18:04.913Z,15.50
2022-08-09T01:20:44.614Z,15.40
2022-08-09T01:24:00.884Z,15.30
2022-08-09T01:26:52.999Z,15.20
2022-08-09T01:29:40.774Z,15.10
2022-08-09T01:32:30.714Z,15.00
2022-08-09T01:35:07.018Z,14.90
2022-08-09T01:38:08.348Z,14.80
2022-08-09T01:40:42.890Z,14.70
2022-08-09T01:43:15.195Z,14.60
2022-08-09T01:45:47.614Z,14.60
2022-08-09T01:48:19.511Z,14.50
2022-08-09T01:50:56.252Z,14.40
2022-08-09T01:53:28.966Z,14.40
2022-08-09T01:56:07.888Z,14.30
2022-08-09T01:58:40.666Z,14.20
2022-08-09T02:01:11.738Z,14.20
2022-08-09T02:03:48.944Z,14.10
2022-08-09T02:06:39.961Z,14.00
2022-08-09T02:09:16.446Z,13.90
2022-08-09T02:11:46.444Z,13.90
2022-08-09T02:14:25.616Z,13.80
2022-08-09T02:16:59.618Z,13.70
2022-08-09T02:19:45.721Z,13.70
2022-08-09T02:22:31.559Z,13.60
2022-08-09T02:25:06.730Z,13.60
2022-08-09T02:27:57.354Z,13.50
2022-08-09T02:30:30.795Z,13.50
2022-08-09T02:33:02.007Z,13.40
2022-08-09T02:36:01.252Z,13.40
2022-08-09T02:51:41.950Z,13.30
2022-08-09T02:54:33.787Z,13.20
2022-08-09T02:57:27.485Z,13.20
2022-08-09T03:00:25.408Z,13.20
2022-08-09T03:03:21.466Z,13.20
2022-08-09T03:06:29.187Z,13.20
2022-08-09T03:09:21.917Z,13.20
2022-08-09T03:12:14.398Z,13.10
2022-08-09T03:15:05.034Z,13.10
2022-08-09T03:17:58.718Z,13.10
2022-08-09T03:20:50.093Z,13.00
2022-08-09T03:23:44.515Z,13.00
2022-08-09T03:26:56.993Z,13.00
2022-08-09T03:30:01.037Z,13.00
2022-08-09T03:32:52.562Z,13.00
2022-08-09T03:36:13.446Z,13.00
2022-08-09T03:38:53.444Z,13.10
2022-08-09T03:41:48.652Z,13.20
2022-08-09T03:44:40.363Z,13.20
2022-08-09T03:47:30.060Z,13.40
2022-08-09T03:50:31.863Z,13.60
2022-08-09T03:53:22.604Z,13.80
2022-08-09T03:56:22.731Z,14.00
2022-08-09T03:59:21.032Z,14.20
2022-08-09T04:02:26.400Z,14.40
2022-08-09T04:05:27.864Z,14.60
2022-08-09T04:08:17.700Z,14.70
2022-08-09T04:11:11.167Z,14.70
2022-08-09T04:14:53.871Z,14.90
2022-08-09T04:17:11.219Z,15.10
2022-08-09T04:20:04.680Z,15.30
2022-08-09T04:22:54.012Z,15.60
2022-08-09T04:25:43.392Z,15.90
2022-08-09T04:28:36.247Z,16.10
2022-08-09T04:31:37.555Z,16.30
2022-08-09T04:34:37.240Z,16.50
2022-08-09T04:37:45.515Z,16.80
2022-08-09T04:40:56.331Z,17.00
2022-08-09T04:43:53.932Z,17.10
2022-08-09T04:46:59.038Z,17.30
2022-08-09T04:49:54.492Z,17.50
2022-08-09T04:52:46.096Z,17.60
2022-08-09T04:55:43.340Z,17.60
2022-08-09T04:58:46.914Z,17.70
2022-08-09T05:01:40.174Z,17.80
2022-08-09T05:04:30.663Z,17.90
2022-08-09T05:07:22.315Z,18.00
2022-08-09T05:10:15.048Z,18.00
2022-08-09T05:13:05.137Z,18.10
2022-08-09T05:15:56.871Z,18.20
2022-08-09T05:18:58.006Z,18.10
2022-08-09T05:21:55.614Z,18.20
2022-08-09T05:24:47.581Z,18.40
2022-08-09T05:27:38.945Z,18.50
2022-08-09T05:30:36.486Z,18.40
2022-08-09T05:33:26.350Z,18.50
2022-08-09T05:36:22.134Z,18.60
2022-08-09T05:39:28.350Z,18.60
2022-08-09T05:42:21.462Z,18.60
2022-08-09T05:45:14.712Z,18.60
2022-08-09T05:48:04.336Z,18.50
2022-08-09T05:51:12.025Z,18.40
2022-08-09T05:54:03.625Z,18.40
2022-08-09T05:56:56.701Z,18.50
2022-08-09T05:59:46.412Z,18.60
2022-08-09T06:02:37.481Z,18.80
2022-08-09T06:05:58.239Z,18.90
2022-08-09T06:08:52.686Z,19.00
2022-08-09T06:11:57.481Z,19.20
2022-08-09T06:14:49.591Z,19.20
2022-08-09T06:17:41.723Z,19.30
2022-08-09T06:20:31.148Z,19.50
2022-08-09T06:23:21.143Z,19.50
2022-08-09T06:26:12.228Z,19.70
2022-08-09T06:29:04.765Z,19.80
2022-08-09T06:32:36.097Z,19.90
2022-08-09T06:35:07.176Z,20.00
2022-08-09T06:38:05.962Z,20.10
2022-08-09T06:40:56.361Z,20.10
2022-08-09T06:43:45.867Z,20.30
2022-08-09T06:46:39.721Z,20.70
2022-08-09T06:50:12.150Z,21.20
2022-08-09T06:52:47.308Z,21.10
2022-08-09T06:55:38.676Z,21.60
2022-08-09T07:00:46.388Z,21.40
2022-08-09T07:01:58.002Z,21.60
2022-08-09T07:04:48.163Z,22.10
2022-08-09T07:07:58.583Z,21.60
2022-08-09T07:10:48.425Z,22.10
2022-08-09T07:13:45.070Z,22.60
2022-08-09T07:16:49.781Z,22.70
2022-08-09T07:19:44.905Z,22.40
2022-08-09T07:22:43.823Z,22.90
2022-08-09T07:25:43.542Z,22.70
2022-08-09T07:28:35.691Z,22.50
2022-08-09T07:31:25.215Z,22.40
2022-08-09T07:34:20.785Z,22.50
2022-08-09T07:37:15.902Z,22.40
2022-08-09T07:40:07.017Z,22.50
2022-08-09T07:42:58.952Z,22.60
2022-08-09T07:45:49.755Z,22.70
2022-08-09T07:48:39.626Z,22.80
2022-08-09T07:52:03.451Z,22.70
2022-08-09T07:54:41.506Z,22.60
2022-08-09T07:57:34.671Z,22.70
2022-08-09T08:00:35.630Z,22.30
2022-08-09T08:03:27.496Z,22.50
2022-08-09T08:06:21.217Z,22.60
2022-08-09T08:09:34.468Z,22.50
2022-08-09T08:12:29.432Z,22.60
2022-08-09T08:15:23.994Z,22.70
2022-08-09T08:18:14.489Z,22.70
2022-08-09T08:21:07.605Z,23.10
2022-08-09T08:24:01.430Z,23.20
2022-08-09T08:27:01.776Z,23.20
2022-08-09T08:29:52.457Z,23.30
2022-08-09T08:32:53.587Z,23.30
2022-08-09T08:35:59.874Z,23.30
2022-08-09T08:38:51.765Z,23.20
2022-08-09T08:41:51.792Z,23.00
2022-08-09T08:44:46.313Z,22.90
2022-08-09T08:47:38.512Z,23.00
2022-08-09T08:50:32.658Z,23.00
2022-08-09T08:53:22.487Z,23.00
2022-08-09T08:56:25.312Z,23.30
2022-08-09T08:59:19.621Z,23.60
2022-08-09T09:02:30.673Z,23.80
2022-08-09T09:05:57.930Z,24.20
2022-08-09T09:08:42.192Z,24.60
2022-08-09T09:11:38.435Z,25.30
2022-08-09T09:14:31.760Z,26.00
2022-08-09T09:17:21.791Z,26.50
2022-08-09T09:20:15.416Z,26.70
2022-08-09T09:23:05.507Z,26.30
2022-08-09T09:26:01.612Z,26.70
2022-08-09T09:29:03.913Z,27.00
2022-08-09T09:32:06.615Z,26.50
2022-08-09T09:35:09.186Z,26.00
2022-08-09T09:38:00.107Z,25.90
2022-08-09T09:40:50.639Z,25.60
2022-08-09T09:44:12.680Z,25.50
2022-08-09T09:46:57.043Z,25.50
2022-08-09T09:50:07.749Z,25.10
2022-08-09T09:53:02.273Z,25.00
2022-08-09T09:56:05.473Z,24.90
2022-08-09T09:58:55.105Z,24.90
2022-08-09T10:01:45.131Z,24.70
2022-08-09T10:04:35.958Z,24.60
2022-08-09T10:07:27.168Z,24.60
2022-08-09T10:10:31.942Z,24.40
2022-08-09T10:13:24.713Z,24.50
2022-08-09T10:16:58.314Z,24.50
2022-08-09T10:19:43.841Z,24.40
2022-08-09T10:22:39.000Z,24.40
2022-08-09T10:25:34.562Z,24.50
2022-08-09T10:28:40.876Z,24.90
2022-08-09T10:34:41.163Z,24.90
2022-08-09T10:37:34.303Z,25.10
2022-08-09T10:40:35.139Z,25.00
2022-08-09T10:43:26.153Z,25.20
2022-08-09T10:46:55.137Z,24.80
2022-08-09T10:49:54.173Z,24.40
2022-08-09T10:53:10.637Z,24.00
2022-08-09T10:56:22.585Z,23.70
2022-08-09T10:59:31.847Z,23.90
2022-08-09T11:03:17.996Z,24.10
2022-08-09T11:06:19.483Z,24.50
2022-08-09T11:09:15.449Z,24.70
2022-08-09T11:12:13.723Z,24.40
2022-08-09T11:15:33.965Z,24.10
2022-08-09T11:18:56.494Z,24.40
2022-08-09T11:21:57.176Z,24.80
2022-08-09T11:25:11.004Z,24.60
2022-08-09T11:28:08.118Z,24.30
2022-08-09T11:31:50.122Z,23.80
2022-08-09T11:34:45.361Z,24.20
2022-08-09T11:37:41.454Z,24.70
2022-08-09T11:40:34.912Z,24.90
2022-08-09T11:43:41.590Z,25.40
2022-08-09T11:46:54.873Z,25.90
2022-08-09T11:50:56.478Z,25.60
2022-08-09T11:53:58.813Z,25.20
2022-08-09T11:56:41.674Z,25.10
2022-08-09T11:59:33.740Z,24.70
2022-08-09T12:02:36.980Z,24.30
2022-08-09T12:05:37.881Z,24.20
2022-08-09T12:08:30.505Z,24.00
2022-08-09T12:11:22.565Z,23.90
2022-08-09T12:14:36.376Z,24.00
2022-08-09T12:17:34.363Z,23.80
2022-08-09T12:20:34.778Z,23.60
2022-08-09T12:23:24.917Z,23.50
2022-08-09T12:26:44.793Z,23.20
2022-08-09T12:30:04.149Z,22.90
2022-08-09T12:33:07.474Z,22.80
2022-08-09T12:36:27.831Z,22.80
2022-08-09T12:39:17.205Z,22.90
2022-08-09T12:42:10.579Z,23.70
2022-08-09T12:45:33.520Z,24.50
2022-08-09T12:48:27.884Z,24.90
2022-08-09T12:51:30.368Z,24.90
2022-08-09T12:55:03.321Z,25.00
2022-08-09T12:58:01.660Z,25.10
2022-08-09T13:00:52.827Z,25.10
2022-08-09T13:03:56.698Z,24.40
2022-08-09T13:06:49.985Z,24.20
2022-08-09T13:09:40.969Z,23.90
2022-08-09T13:12:33.300Z,23.60
2022-08-09T13:15:29.415Z,23.60
2022-08-09T13:18:27.194Z,23.40
2022-08-09T13:22:33.476Z,23.50
2022-08-09T13:24:52.788Z,23.50
2022-08-09T13:27:55.375Z,23.90
2022-08-09T13:30:49.976Z,25.30
2022-08-09T13:33:57.239Z,27.50
2022-08-09T13:36:46.625Z,29.40
2022-08-09T13:41:55.965Z,31.50
2022-08-09T13:42:50.301Z,33.00
2022-08-09T13:46:44.480Z,29.50
2022-08-09T13:48:48.996Z,26.80
2022-08-09T13:51:39.884Z,25.70
2022-08-09T13:54:58.696Z,24.50
2022-08-09T13:57:56.168Z,24.70
2022-08-09T14:00:52.521Z,29.00
2022-08-09T14:04:05.400Z,31.70
2022-08-09T14:07:03.863Z,33.30
2022-08-09T14:09:53.766Z,34.80
2022-08-09T14:12:44.865Z,31.70
2022-08-09T14:16:09.756Z,30.40
2022-08-09T14:18:50.046Z,29.20
2022-08-09T14:21:40.395Z,27.80
2022-08-09T14:24:32.101Z,27.80
2022-08-09T14:27:22.020Z,28.70
2022-08-09T14:30:36.730Z,29.00
2022-08-09T14:33:25.320Z,28.10
2022-08-09T14:36:20.586Z,27.60
2022-08-09T14:39:10.789Z,27.30
2022-08-09T14:42:01.586Z,27.60
2022-08-09T14:45:00.225Z,27.00
2022-08-09T14:47:58.267Z,27.10
2022-08-09T14:50:49.939Z,27.00
2022-08-09T14:53:40.008Z,26.70
2022-08-09T14:56:36.181Z,26.40
2022-08-09T14:59:48.631Z,26.20
2022-08-09T15:02:38.638Z,25.90
2022-08-09T15:05:29.663Z,25.50
2022-08-09T15:08:19.062Z,25.40
2022-08-09T15:11:08.580Z,25.30
2022-08-09T15:14:04.682Z,25.10
2022-08-09T15:17:05.190Z,24.90
2022-08-09T15:20:02.453Z,24.60
2022-08-09T15:23:03.076Z,24.40
2022-08-09T15:26:02.179Z,24.00
2022-08-09T15:28:54.884Z,24.00
2022-08-09T15:31:44.519Z,24.10
2022-08-09T15:34:35.790Z,24.30
2022-08-09T15:37:57.252Z,24.40
2022-08-09T15:40:46.892Z,24.30
2022-08-09T15:43:37.048Z,24.20
2022-08-09T15:46:31.860Z,24.30
2022-08-09T15:49:24.126Z,24.60
2022-08-09T15:52:14.931Z,24.80
2022-08-09T15:55:04.572Z,24.70
2022-08-09T15:57:53.999Z,24.50
2022-08-09T16:00:43.612Z,24.70
2022-08-09T16:03:38.534Z,24.90
2022-08-09T16:06:35.514Z,24.40
2022-08-09T16:09:32.416Z,24.20
2022-08-09T16:12:41.585Z,23.80
2022-08-09T16:16:10.835Z,23.30
2022-08-09T16:18:50.177Z,22.80
2022-08-09T16:21:48.752Z,22.70
2022-08-09T16:24:44.649Z,22.60
2022-08-09T16:27:47.951Z,22.60
2022-08-09T16:30:44.813Z,22.50
2022-08-09T16:33:44.248Z,22.40
2022-08-09T16:36:33.609Z,22.30
2022-08-09T16:39:25.627Z,22.10
2022-08-09T16:42:16.866Z,21.90
2022-08-09T16:45:14.465Z,21.90
2022-08-09T16:48:40.827Z,21.80
2022-08-09T16:51:16.359Z,21.70
2022-08-09T16:54:26.323Z,21.70
2022-08-09T16:57:16.701Z,21.80
2022-08-09T17:00:07.721Z,22.00
2022-08-09T17:02:57.203Z,21.90
2022-08-09T17:06:08.591Z,21.80
2022-08-09T17:09:10.668Z,21.80
2022-08-09T17:12:07.042Z,21.70
2022-08-09T17:14:58.558Z,21.70
2022-08-09T17:17:51.112Z,21.60
2022-08-09T17:20:49.125Z,21.50
2022-08-09T17:24:20.465Z,21.30
2022-08-09T17:26:53.340Z,21.10
2022-08-09T17:29:45.591Z,21.10
2022-08-09T17:32:37.976Z,20.90
2022-08-09T17:35:27.967Z,20.80
2022-08-09T17:38:29.189Z,20.70
2022-08-09T17:41:21.982Z,20.60
2022-08-09T17:44:42.109Z,20.40
2022-08-09T17:47:49.319Z,20.30
2022-08-09T17:50:39.367Z,20.20
2022-08-09T17:53:28.774Z,20.10
2022-08-09T17:56:21.719Z,20.00
2022-08-09T17:59:16.938Z,19.90
2022-08-09T18:02:18.849Z,19.70
2022-08-09T18:05:14.234Z,19.70
2022-08-09T18:08:06.225Z,19.60
2022-08-09T18:11:01.894Z,19.60
2022-08-09T18:13:57.696Z,19.50
2022-08-09T18:16:53.899Z,19.50
2022-08-09T18:20:54.500Z,19.40
2022-08-09T18:22:54.295Z,19.40
2022-08-09T18:25:51.156Z,19.20
2022-08-09T18:30:35.737Z,19.20
2022-08-09T18:31:55.890Z,19.10
2022-08-09T18:34:46.061Z,19.00
2022-08-09T18:37:47.921Z,18.90
2022-08-09T18:40:40.419Z,18.80
2022-08-09T18:43:35.225Z,18.60
2022-08-09T18:46:48.544Z,18.50
2022-08-09T18:49:43.173Z,18.30
2022-08-09T18:52:36.540Z,18.10
2022-08-09T18:55:45.478Z,18.00
2022-08-09T18:58:38.977Z,17.90
2022-08-09T19:01:28.704Z,17.80
2022-08-09T19:04:35.082Z,17.60
2022-08-09T19:07:24.796Z,17.60
2022-08-09T19:10:17.623Z,17.50
2022-08-09T19:13:23.173Z,17.40
2022-08-09T19:16:21.376Z,17.30
2022-08-09T19:19:25.433Z,17.10
2022-08-09T19:22:17.828Z,17.00
2022-08-09T19:25:41.395Z,16.90
2022-08-09T19:28:18.268Z,16.80
2022-08-09T19:31:07.981Z,16.70
2022-08-09T19:33:59.192Z,16.60
2022-08-09T19:36:48.657Z,16.60
2022-08-09T19:40:02.902Z,16.50
2022-08-09T19:42:49.517Z,16.50
2022-08-09T19:45:42.019Z,16.40
2022-08-09T19:49:00.344Z,16.40
2022-08-09T19:51:48.062Z,16.40
2022-08-09T19:54:45.044Z,16.50
2022-08-09T19:57:34.740Z,16.50
2022-08-09T20:00:24.680Z,16.50
2022-08-09T20:04:10.664Z,16.50
2022-08-09T20:06:29.872Z,16.50
2022-08-09T20:09:44.765Z,16.50
2022-08-09T20:12:36.548Z,16.50
2022-08-09T20:16:37.863Z,16.40
2022-08-09T20:18:37.494Z,16.40
2022-08-09T20:21:55.153Z,16.40
2022-08-09T20:24:37.764Z,16.30
2022-08-09T20:27:30.325Z,16.30
2022-08-09T20:30:21.810Z,16.20
2022-08-09T20:33:13.756Z,16.20
2022-08-09T20:36:06.781Z,16.20
2022-08-09T20:39:28.251Z,16.10
2022-08-09T20:42:08.574Z,16.00
2022-08-09T20:45:57.081Z,15.90
2022-08-09T20:48:12.087Z,15.80
2022-08-09T20:51:03.110Z,15.80
2022-08-09T20:53:52.866Z,15.70
2022-08-09T20:56:42.073Z,15.70
2022-08-09T21:00:20.187Z,15.60
2022-08-09T21:02:45.014Z,15.50
2022-08-09T21:05:51.411Z,15.40
2022-08-09T21:08:47.345Z,15.40
2022-08-09T21:14:49.183Z,15.30
2022-08-09T21:18:20.618Z,15.20
2022-08-09T21:20:54.105Z,15.10
2022-08-09T21:23:47.813Z,15.00
2022-08-09T21:26:40.807Z,14.90
2022-08-09T21:29:30.364Z,14.90
2022-08-09T21:32:40.417Z,14.80
2022-08-09T21:35:39.284Z,14.70
2022-08-09T21:42:04.588Z,14.60
2022-08-09T21:44:52.701Z,14.60
2022-08-09T21:54:28.800Z,14.40
2022-08-09T21:57:25.494Z,14.40
2022-08-09T22:00:32.724Z,14.30
2022-08-09T22:03:25.523Z,14.30
2022-08-09T22:06:15.253Z,14.20
2022-08-09T22:09:05.489Z,14.20
2022-08-09T22:12:18.034Z,14.20
2022-08-09T22:15:16.594Z,14.10
2022-08-09T22:18:08.258Z,14.10
2022-08-09T22:21:03.403Z,14.10
2022-08-09T22:24:01.942Z,14.00
2022-08-09T22:26:52.240Z,14.00
2022-08-09T22:29:47.643Z,14.00
2022-08-09T22:32:38.236Z,13.90
2022-08-09T22:36:01.824Z,13.90
2022-08-09T22:38:38.757Z,13.90
2022-08-09T22:41:33.436Z,13.90
2022-08-09T22:44:23.881Z,13.80
2022-08-09T22:48:14.266Z,13.80
2022-08-09T22:50:29.982Z,13.80
2022-08-09T22:53:19.537Z,13.70
2022-08-09T22:56:31.354Z,13.70
2022-08-09T22:59:57.637Z,13.70
2022-08-09T23:02:30.818Z,13.70
2022-08-09T23:05:20.446Z,13.60
2022-08-09T23:08:31.398Z,13.60
2022-08-09T23:11:24.294Z,13.60
2022-08-09T23:14:17.027Z,13.60
2022-08-09T23:17:07.058Z,13.60
2022-08-09T23:20:07.244Z,13.50
2022-08-09T23:22:57.543Z,13.50
2022-08-09T23:25:47.038Z,13.50
2022-08-09T23:28:37.938Z,13.50
2022-08-09T23:31:27.468Z,13.40
2022-08-09T23:34:16.849Z,13.50
2022-08-09T23:37:06.537Z,13.50
2022-08-09T23:39:55.942Z,13.40
2022-08-09T23:42:45.610Z,13.40
2022-08-09T23:45:38.503Z,13.40
2022-08-09T23:48:28.041Z,13.40
2022-08-09T23:51:17.896Z,13.40
2022-08-09T23:54:07.208Z,13.40
2022-08-09T23:56:58.197Z,13.40
